• Join FlightAware (Why Join?)
  • Login
  • US Flag 
Rudolph Flight #1: Arrived! 
02:57AM EST


 

Airport Tracker/Info


-or-


 

Live Flight TrackerFlight Track Log ✈ N502QS ✈ 27-Jun-2013 ✈ KMLU - KASE

Flight Track Log - Related Links

Times and Time Zones

All times are in EDT time to prevent confusion due to time zone crossing. See the N502QS flight status page for this flight to view local times or setup timezone preferences in your user account.

Time Position Orientation Groundspeed Altitude Reporting Facility
EDT Latitude Longitude Course Direction KTS MPH feet Rate Location/Type
06:07PM 32.5897 -92.1028 301° West 283 326 6,900  Level Fort Worth Center
06:08PM 32.6261 -92.1744 301° West 291 335 10,700 3,300 Climbing Fort Worth Center
06:09PM 32.6783 -92.2728 302° West 301 346 13,600 2,700 Climbing Fort Worth Center
06:10PM 32.7306 -92.3808 300° West 338 389 16,100 2,460 Climbing Fort Worth Center
06:11PM 32.8898 -92.7959 301° West  Level FlightAware Approximate
06:11PM 32.7853 -92.4964 299° West 376 433 18,600  Level Fort Worth Center
06:12PM 32.8442 -92.6167 300° West 407 468 21,200 2,580 Climbing Fort Worth Center
06:13PM 32.9011 -92.7422 298° West 423 487 23,800 2,400 Climbing Fort Worth Center
06:14PM 32.9625 -92.8778 298° West 447 514 26,000 2,100 Climbing Fort Worth Center
06:15PM 33.0278 -93.0156 299° West 462 532 28,100 2,100 Climbing Fort Worth Center
06:16PM 33.0953 -93.1586 299° West 483 556 30,200 2,280 Climbing Fort Worth Center
06:17PM 33.1631 -93.3067 299° West 494 568 32,700 2,400 Climbing Fort Worth Center
06:18PM 33.2303 -93.4500 299° West 494 568 35,000 2,460 Climbing Fort Worth Center
06:19PM 33.2950 -93.5911 299° West 499 574 37,700 1,620 Climbing Fort Worth Center
06:21PM 33.4306 -93.8717 300° West 480 552 40,000 720 Climbing Fort Worth Center
06:22PM 33.4972 -94.0208 298° West 489 563 40,000  Level Fort Worth Center
06:23PM 33.5594 -94.1556 299° West 483 556 40,000  Level Fort Worth Center
06:24PM 33.6317 -94.2900 303° West 483 556 40,000  Level Fort Worth Center
06:25PM 33.7058 -94.4247 304° West 478 550 40,000  Level Fort Worth Center
06:26PM 33.7736 -94.5550 302° West 478 550 40,000  Level Fort Worth Center
06:27PM 33.8433 -94.6875 302° West 467 537 40,000  Level Fort Worth Center
06:28PM 33.9169 -94.8156 305° West 467 537 40,000  Level Fort Worth Center
06:29PM 33.9864 -94.9486 302° West 467 537 40,000  Level Fort Worth Center
06:30PM 34.0558 -95.0819 302° West 467 537 40,000  Level Fort Worth Center
06:31PM 34.1269 -95.2156 303° West 467 537 40,000  Level Fort Worth Center
06:32PM 34.2003 -95.3519 303° West 467 537 40,000  Level Fort Worth Center
06:33PM 34.2669 -95.4836 302° West 467 537 40,000  Level Fort Worth Center
06:34PM 34.3358 -95.6178 302° West 467 537 40,000  Level Fort Worth Center
06:35PM 34.4064 -95.7522 302° West 467 537 40,000  Level Fort Worth Center
06:36PM 34.4792 -95.8894 303° West 467 537 40,000  Level Fort Worth Center
06:37PM 34.5497 -96.0269 302° West 472 543 40,000  Level Fort Worth Center
06:38PM 34.6200 -96.1619 302° West 472 543 40,000  Level Fort Worth Center
06:39PM 34.6922 -96.3022 302° West 477 549 40,000  Level Fort Worth Center
06:40PM 34.7622 -96.4378 302° West 477 549 40,000  Level Fort Worth Center
06:41PM 34.8342 -96.5761 302° West 482 555 40,000  Level Fort Worth Center
06:42PM 34.9058 -96.7147 302° West 482 555 40,000  Level Fort Worth Center
06:43PM 34.9753 -96.8536 301° West 487 560 40,000  Level Fort Worth Center
06:44PM 35.0447 -96.9900 302° West 487 560 40,000  Level Fort Worth Center
06:45PM 35.1139 -97.1292 301° West 487 560 40,000  Level Fort Worth Center
06:46PM 35.1933 -97.2839 302° West 496 571 40,000 120 Level Fort Worth Center
06:47PM 35.2664 -97.4211 303° West 491 565 40,300 540 Climbing Fort Worth Center
06:48PM 35.3289 -97.5689 297° West 486 559 41,200 900 Climbing Fort Worth Center
06:49PM 35.3975 -97.7039 302° West 480 552 42,200 900 Climbing Fort Worth Center
06:50PM 35.4617 -97.8442 299° West 480 552 43,000 360 Climbing Fort Worth Center
06:51PM 35.5239 -97.9847 299° West 480 552 43,000  Level Fort Worth Center
06:52PM 35.5856 -98.1256 298° West 480 552 43,000  Level Fort Worth Center
06:52PM 35.6358 -98.2319 300° West 475 547 43,000  Level Kansas City Center
06:53PM 35.7000 -98.3794 298° West 472 543 43,000  Level Kansas City Center
06:54PM 35.7622 -98.5217 298° West 470 541 43,000  Level Kansas City Center
06:56PM 35.8247 -98.6639 298° West 473 544 43,000  Level Kansas City Center
06:57PM 35.8833 -98.7997 298° West 473 544 43,000  Level Kansas City Center
06:58PM 35.9450 -98.9417 298° West 472 543 43,000  Level Kansas City Center
06:59PM 36.0069 -99.0831 298° West 471 542 43,000  Level Kansas City Center
07:00PM 36.0806 -99.2514 298° West 468 539 43,000  Level Kansas City Center
07:01PM 36.1369 -99.3897 297° West 465 535 43,000  Level Kansas City Center
07:02PM 36.1967 -99.5311 298° West 464 534 43,000  Level Kansas City Center
07:03PM 36.2578 -99.6747 298° West 470 541 43,000  Level Kansas City Center
07:04PM 36.3181 -99.8194 297° West 471 542 43,100  Climbing Kansas City Center
07:05PM 36.4069 -99.9781 305° West 467 537 43,000 -120 Descending Kansas City Center
07:06PM 36.4878 -100.1000 310° West 460 529 42,900 420 Descending Kansas City Center
07:07PM 36.5617 -100.2206 307° West 442 509 43,900 900 Climbing Kansas City Center
07:08PM 36.6406 -100.3389 310° West 443 510 44,800 480 Climbing Kansas City Center
07:09PM 36.7264 -100.4711 309° West 451 519 45,000 60 Climbing Kansas City Center
07:10PM 36.8006 -100.5956 307° West 460 529 45,000  Level Kansas City Center
07:11PM 36.8717 -100.7542 299° West 466 536 45,000  Level Kansas City Center
07:12PM 36.9314 -100.8867 299° West 461 531 45,100  Climbing Kansas City Center
07:13PM 36.9867 -101.0075 300° West 431 496 45,000 -60 Descending Kansas City Center
07:14PM 37.0486 -101.1497 299° West 417 480 45,000  Level Kansas City Center
07:15PM 37.1131 -101.2747 303° West 434 499 45,100  Climbing Kansas City Center
07:16PM 37.1967 -101.4086 308° West 434 499 45,000 -60 Descending Kansas City Center
07:17PM 37.2542 -101.5381 299° West 443 510 45,000  Level Kansas City Center
07:18PM 37.3244 -101.6972 299° West 458 527 45,000  Level Kansas City Center
07:19PM 37.3867 -101.8386 299° West 475 547 45,000  Level Kansas City Center
07:20PM 37.4461 -101.9761 299° West 472 543 45,000  Level Kansas City Center
07:21PM 37.5156 -102.1336 299° West 463 533 45,000  Level Kansas City Center
07:22PM 37.5747 -102.2694 299° West 462 532 45,000  Level Kansas City Center
07:23PM 37.6433 -102.4289 299° West 462 532 45,000  Level Kansas City Center
07:24PM 37.7033 -102.5667 299° West 467 537 45,000  Level Kansas City Center
07:25PM 37.7706 -102.7281 298° West 465 535 45,000 -480 Level Kansas City Center
07:26PM 37.8067 -102.8789 287° West 474 545 44,100 -1,200 Descending Kansas City Center
07:28PM 37.8506 -103.0939 285° West 483 556 42,200 -1,560 Descending Denver Center
07:29PM 37.8831 -103.2756 283° West 476 548 40,500 -1,500 Descending Denver Center
07:30PM 37.9131 -103.4294 284° West 472 543 39,100 -1,260 Descending Denver Center
07:31PM 37.9472 -103.6125 283° West 482 555 38,000 -1,200 Descending Denver Center
07:32PM 37.9756 -103.7719 283° West 487 560 36,700 -1,440 Descending Denver Center
07:33PM 38.0089 -103.9572 283° West 486 559 35,100 -1,500 Descending Denver Center
07:34PM 38.0392 -104.1164 284° West 488 562 33,600 -1,500 Descending Denver Center
07:35PM 38.0722 -104.3044 283° West 491 565 32,000 -780 Descending Denver Center
07:36PM 38.1017 -104.4678 283° West 495 570 32,000 -600 Level Denver Center
07:37PM 38.1347 -104.6597 282° West 500 575 30,800 -1,440 Descending Denver Center
07:38PM 38.1628 -104.8219 282° West 495 570 29,100 -1,380 Descending Denver Center
07:39PM 38.1964 -105.0147 283° West 500 575 28,000 -540 Descending Denver Center
07:40PM 38.2225 -105.1658 282° West 467 537 28,000 -360 Level Denver Center
07:41PM 38.2519 -105.3419 282° West 456 525 27,300 -540 Descending Denver Center
07:42PM 38.2764 -105.4922 282° West 454 522 27,000 -180 Descending Denver Center
07:43PM 38.3047 -105.6611 282° West 439 505 27,000  Level Denver Center
07:44PM 38.3283 -105.8056 282° West 436 502 27,000  Level Denver Center
07:45PM 38.3511 -105.9667 280° West 414 476 27,000 -540 Level Denver Center
07:46PM 38.3556 -106.1011 272° West 399 459 26,000 -1,200 Descending Denver Center
07:47PM 38.4125 -106.2194 302° West 391 450 24,600 -1,500 Descending Denver Center
07:48PM 38.5033 -106.2892 329° Northwest 395 455 22,900 -1,800 Descending Denver Center
07:49PM 38.5922 -106.3572 329° Northwest 378 435 20,900 -2,040 Descending Denver Center
07:51PM 38.6856 -106.4172 333° Northwest 375 432 18,300 -1,740 Descending Denver Center
07:52PM 38.7939 -106.4861 334° Northwest 367 422 17,000 -720 Descending Denver Center
07:53PM 38.9053 -106.5542 335° Northwest 367 422 16,900 -60 Descending Denver Center
07:54PM 38.9936 -106.6108 334° Northwest 364 419 16,900  Level Denver Center
07:55PM 39.0797 -106.6647 334° Northwest 350 403 16,900 -240 Level Denver Center
07:56PM 39.1631 -106.7175 334° Northwest 338 389 16,500 -600 Descending Denver Center
07:57PM 39.2364 -106.7644 334° Northwest 304 350 15,700 -960 Descending Denver Center
07:58PM 39.2997 -106.8047 334° Northwest 261 300 14,500 -1,320 Descending Denver Center
07:59PM 39.3522 -106.8469 328° Northwest 241 277 13,000 -1,920 Descending Denver Center
08:00PM 39.3244 -106.9236 245° Southwest 217 250 10,600 -2,220 Descending Denver Center
08:01PM 39.2900 -106.8956 148° Southeast 201 231 8,500 -2,040 Descending Denver Center
08:03PM 39.2167 -106.8667 169° South  Level FlightAware Approximate